Главная страница
METAR-TAF:

METAR-TAF

Аэропорты :

Brookhaven Airport

Шерли, Нью-Йорк, США

широта: 40-49-18N, долгота: 072-52-08W, высота над уровнем моря: 25 м

Текущие метеонаблюдения

Эта сводка был подготовлена 17 минут назад, в 13:56 UTC
Ветер 11 Узел от западный
Температура 4°C
Влажность 56%
Давление 1018 hPa
Видимость: 16.1 км
ясное небо

METAR: KHWV 211356Z AUTO 26011KT 10SM CLR 04/M04 A3007 RMK AO2 SLP183 T00441044

Время: 09:13 (14:13 UTC)


TAF: отсутствует

Метеонаблюдения и прогнозы для более 4000 аэропортов (сводки METAR и TAF).

Имеющиеся станции представлены на карте желтыми и красными точками.

Чтобы увидеть название станции, наведите на нее мышь.

Затем щелкните, чтобы увидеть метеонаблюдения и метеопрогнозы.

Управление картой: чтобы увеличить масштаб, щелкните зеленые кнопки с черным крестиком; чтобы уменьшить масштаб, щелкните зеленую кнопку с тире; для просмотра соседних карт щелкайте зеленые стрелки.


METAR-TAF: